EZY75CE LEBB-EGKK
Flight info
| Callsign | EZY75CE |
|---|---|
| Flight time | 0h 57m |
| Altitude | 36000 |
| Route | BISKA P87 BELEN DCT DIDIG UP87 UPALO/N0438F340 UP87 REVTU UP88 VASUX |
| Aircraft | A320/M-SDE3FGHIRWY/LB1 |
Departure
| Time | 2026-05-06 18:55 |
|---|---|
| Airport | Bilbao Airport (LEBB) |
Arrival
| Time | 2026-05-06 19:52 |
|---|---|
| Airport | London Gatwick Airport (EGKK) |
| Time | Latitude | Longitude | Altitude | Speed | Heading |
|---|---|---|---|---|---|
| 2026-05-06 18:34 | 43.30407 | -2.90576 | 127 ft | 0 kts | 26° |
| 2026-05-06 18:44 | 43.30391 | -2.90588 | 122 ft | 4 kts | 30° |
| 2026-05-06 18:44 | 43.30369 | -2.90608 | 123 ft | 4 kts | 43° |
| 2026-05-06 18:44 | 43.30353 | -2.90635 | 123 ft | 4 kts | 81° |
| 2026-05-06 18:45 | 43.30354 | -2.90653 | 123 ft | 0 kts | 117° |
| 2026-05-06 18:47 | 43.30342 | -2.90622 | 124 ft | 9 kts | 122° |
| 2026-05-06 18:47 | 43.30295 | -2.90571 | 124 ft | 8 kts | 146° |
| 2026-05-06 18:47 | 43.30254 | -2.90535 | 125 ft | 6 kts | 149° |
| 2026-05-06 18:47 | 43.30207 | -2.90539 | 123 ft | 8 kts | 202° |
| 2026-05-06 18:48 | 43.30153 | -2.90571 | 124 ft | 12 kts | 195° |
| 2026-05-06 18:48 | 43.30095 | -2.90511 | 126 ft | 10 kts | 116° |
| 2026-05-06 18:48 | 43.30060 | -2.90413 | 126 ft | 17 kts | 116° |
| 2026-05-06 18:48 | 43.30001 | -2.90257 | 124 ft | 19 kts | 117° |
| 2026-05-06 18:49 | 43.29939 | -2.90089 | 126 ft | 20 kts | 115° |
| 2026-05-06 18:49 | 43.29877 | -2.89916 | 127 ft | 12 kts | 115° |
| 2026-05-06 18:49 | 43.29875 | -2.89909 | 126 ft | 0 kts | 116° |
| 2026-05-06 18:52 | 43.29874 | -2.89907 | 126 ft | 2 kts | 116° |
| 2026-05-06 18:52 | 43.29848 | -2.89836 | 125 ft | 15 kts | 117° |
| 2026-05-06 18:53 | 43.29802 | -2.89713 | 128 ft | 14 kts | 117° |
| 2026-05-06 18:53 | 43.29762 | -2.89605 | 126 ft | 10 kts | 125° |
| 2026-05-06 18:53 | 43.29706 | -2.89597 | 128 ft | 8 kts | 216° |
| 2026-05-06 18:53 | 43.29673 | -2.89648 | 125 ft | 7 kts | 228° |
| 2026-05-06 18:54 | 43.29628 | -2.89710 | 127 ft | 9 kts | 249° |
| 2026-05-06 18:54 | 43.29640 | -2.89782 | 124 ft | 7 kts | 294° |
| 2026-05-06 18:54 | 43.29684 | -2.89899 | 124 ft | 36 kts | 297° |
| 2026-05-06 18:54 | 43.29910 | -2.90514 | 125 ft | 105 kts | 297° |
| 2026-05-06 18:55 | 43.30323 | -2.91641 | 126 ft | 157 kts | 297° |
| 2026-05-06 18:55 | 43.30845 | -2.93057 | 624 ft | 164 kts | 297° |
| 2026-05-06 18:55 | 43.31359 | -2.94437 | 1374 ft | 161 kts | 297° |
| 2026-05-06 18:55 | 43.31900 | -2.95873 | 1733 ft | 181 kts | 298° |
| 2026-05-06 18:56 | 43.32503 | -2.97448 | 2111 ft | 195 kts | 299° |
| 2026-05-06 18:56 | 43.33233 | -2.99089 | 2455 ft | 211 kts | 312° |
| 2026-05-06 18:56 | 43.34344 | -3.00532 | 2818 ft | 229 kts | 321° |
| 2026-05-06 18:56 | 43.35610 | -3.01911 | 3508 ft | 235 kts | 327° |
| 2026-05-06 18:57 | 43.37122 | -3.02731 | 4234 ft | 237 kts | 353° |
| 2026-05-06 18:57 | 43.38782 | -3.02492 | 4799 ft | 252 kts | 18° |
| 2026-05-06 18:57 | 43.40467 | -3.01604 | 5383 ft | 264 kts | 20° |
| 2026-05-06 18:57 | 43.42191 | -3.00659 | 6159 ft | 269 kts | 20° |
| 2026-05-06 18:58 | 43.43946 | -2.99695 | 6920 ft | 273 kts | 20° |
| 2026-05-06 18:58 | 43.45727 | -2.98722 | 7685 ft | 277 kts | 20° |
| 2026-05-06 18:58 | 43.47535 | -2.97738 | 8443 ft | 281 kts | 19° |
| 2026-05-06 18:58 | 43.49369 | -2.96740 | 9204 ft | 285 kts | 19° |
| 2026-05-06 18:59 | 43.51208 | -2.95743 | 9944 ft | 289 kts | 19° |
| 2026-05-06 18:59 | 43.53124 | -2.94711 | 10358 ft | 306 kts | 19° |
| 2026-05-06 18:59 | 43.55180 | -2.93603 | 10536 ft | 329 kts | 19° |
| 2026-05-06 18:59 | 43.57365 | -2.92423 | 10901 ft | 343 kts | 19° |
| 2026-05-06 19:00 | 43.59603 | -2.91212 | 11530 ft | 348 kts | 20° |
| 2026-05-06 19:00 | 43.61864 | -2.89986 | 12216 ft | 351 kts | 20° |
| 2026-05-06 19:00 | 43.64148 | -2.88744 | 12877 ft | 354 kts | 20° |
| 2026-05-06 19:00 | 43.65702 | -2.87899 | 13327 ft | 357 kts | 20° |
| 2026-05-06 19:01 | 43.68778 | -2.86225 | 14150 ft | 361 kts | 20° |
| 2026-05-06 19:01 | 43.71131 | -2.84944 | 14729 ft | 365 kts | 20° |
| 2026-05-06 19:01 | 43.73499 | -2.83654 | 15308 ft | 368 kts | 20° |
| 2026-05-06 19:01 | 43.75895 | -2.82350 | 15886 ft | 371 kts | 20° |
| 2026-05-06 19:02 | 43.78304 | -2.81040 | 16456 ft | 374 kts | 20° |
| 2026-05-06 19:02 | 43.80736 | -2.79717 | 17018 ft | 377 kts | 20° |
| 2026-05-06 19:02 | 43.83191 | -2.78380 | 17560 ft | 380 kts | 21° |
| 2026-05-06 19:02 | 43.85661 | -2.77027 | 18111 ft | 383 kts | 21° |
| 2026-05-06 19:03 | 43.88149 | -2.75660 | 18606 ft | 386 kts | 20° |
| 2026-05-06 19:03 | 43.90663 | -2.74311 | 19073 ft | 389 kts | 17° |
| 2026-05-06 19:03 | 43.93289 | -2.73424 | 19524 ft | 390 kts | 8° |
| 2026-05-06 19:03 | 43.95981 | -2.72831 | 19981 ft | 393 kts | 7° |
| 2026-05-06 19:04 | 43.98691 | -2.72238 | 20438 ft | 395 kts | 8° |
| 2026-05-06 19:04 | 44.01415 | -2.71644 | 20909 ft | 397 kts | 8° |
| 2026-05-06 19:04 | 44.04154 | -2.71047 | 21362 ft | 400 kts | 8° |
| 2026-05-06 19:04 | 44.06912 | -2.70444 | 21799 ft | 402 kts | 7° |
| 2026-05-06 19:05 | 44.09648 | -2.69842 | 22219 ft | 405 kts | 8° |
| 2026-05-06 19:05 | 44.12441 | -2.69226 | 22638 ft | 408 kts | 8° |
| 2026-05-06 19:05 | 44.15250 | -2.68604 | 23056 ft | 410 kts | 8° |
| 2026-05-06 19:05 | 44.18077 | -2.67975 | 23472 ft | 413 kts | 8° |
| 2026-05-06 19:06 | 44.20925 | -2.67340 | 23837 ft | 415 kts | 8° |
| 2026-05-06 19:06 | 44.23779 | -2.66703 | 24208 ft | 416 kts | 8° |
| 2026-05-06 19:06 | 44.26649 | -2.66062 | 24573 ft | 418 kts | 7° |
| 2026-05-06 19:06 | 44.29526 | -2.65423 | 24921 ft | 420 kts | 7° |
| 2026-05-06 19:07 | 44.32415 | -2.64778 | 25260 ft | 421 kts | 7° |
| 2026-05-06 19:07 | 44.34331 | -2.64348 | 25481 ft | 422 kts | 7° |
| 2026-05-06 19:07 | 44.38226 | -2.63474 | 25922 ft | 425 kts | 7° |
| 2026-05-06 19:07 | 44.41156 | -2.62819 | 26251 ft | 427 kts | 7° |
| 2026-05-06 19:08 | 44.44097 | -2.62162 | 26571 ft | 429 kts | 7° |
| 2026-05-06 19:08 | 44.47048 | -2.61505 | 26896 ft | 430 kts | 7° |
| 2026-05-06 19:08 | 44.50014 | -2.60841 | 27218 ft | 432 kts | 7° |
| 2026-05-06 19:08 | 44.52984 | -2.60173 | 27536 ft | 434 kts | 7° |
| 2026-05-06 19:09 | 44.55972 | -2.59496 | 27845 ft | 436 kts | 7° |
| 2026-05-06 19:09 | 44.58972 | -2.58814 | 28158 ft | 437 kts | 7° |
| 2026-05-06 19:09 | 44.61978 | -2.58132 | 28472 ft | 439 kts | 7° |
| 2026-05-06 19:09 | 44.65000 | -2.57449 | 28743 ft | 441 kts | 7° |
| 2026-05-06 19:10 | 44.67993 | -2.56776 | 29021 ft | 442 kts | 7° |
| 2026-05-06 19:10 | 44.71040 | -2.56091 | 29297 ft | 444 kts | 7° |
| 2026-05-06 19:10 | 44.74095 | -2.55403 | 29565 ft | 445 kts | 7° |
| 2026-05-06 19:10 | 44.77158 | -2.54710 | 29831 ft | 447 kts | 7° |
| 2026-05-06 19:11 | 44.80230 | -2.54016 | 30085 ft | 448 kts | 7° |
| 2026-05-06 19:11 | 44.83319 | -2.53316 | 30302 ft | 450 kts | 7° |
| 2026-05-06 19:11 | 44.86404 | -2.52613 | 30616 ft | 449 kts | 7° |
| 2026-05-06 19:11 | 44.89482 | -2.51906 | 30932 ft | 448 kts | 7° |
| 2026-05-06 19:12 | 44.92551 | -2.51198 | 31245 ft | 446 kts | 7° |
| 2026-05-06 19:12 | 44.95620 | -2.50493 | 31558 ft | 446 kts | 7° |
| 2026-05-06 19:12 | 44.97646 | -2.50030 | 31768 ft | 445 kts | 7° |
| 2026-05-06 19:12 | 45.00696 | -2.49336 | 32093 ft | 444 kts | 7° |
| 2026-05-06 19:13 | 45.03739 | -2.48643 | 32408 ft | 442 kts | 7° |
| 2026-05-06 19:13 | 45.06775 | -2.47947 | 32718 ft | 441 kts | 7° |
| 2026-05-06 19:13 | 45.10783 | -2.47030 | 33126 ft | 440 kts | 7° |
| 2026-05-06 19:13 | 45.13805 | -2.46340 | 33432 ft | 439 kts | 7° |
| 2026-05-06 19:14 | 45.15842 | -2.45874 | 33640 ft | 439 kts | 7° |
| 2026-05-06 19:14 | 45.18852 | -2.45182 | 33967 ft | 437 kts | 7° |
| 2026-05-06 19:14 | 45.21848 | -2.44491 | 34233 ft | 436 kts | 7° |
| 2026-05-06 19:14 | 45.24847 | -2.43796 | 34454 ft | 437 kts | 7° |
| 2026-05-06 19:15 | 45.27807 | -2.43111 | 34654 ft | 437 kts | 7° |
| 2026-05-06 19:15 | 45.30814 | -2.42419 | 34846 ft | 438 kts | 7° |
| 2026-05-06 19:15 | 45.33823 | -2.41728 | 35034 ft | 438 kts | 7° |
| 2026-05-06 19:15 | 45.36834 | -2.41035 | 35225 ft | 438 kts | 7° |
| 2026-05-06 19:16 | 45.39846 | -2.40338 | 35411 ft | 439 kts | 7° |
| 2026-05-06 19:16 | 45.42861 | -2.39639 | 35587 ft | 439 kts | 7° |
| 2026-05-06 19:16 | 45.45879 | -2.38939 | 35758 ft | 440 kts | 7° |
| 2026-05-06 19:16 | 45.48898 | -2.38234 | 35933 ft | 440 kts | 7° |
| 2026-05-06 19:17 | 45.51922 | -2.37527 | 36002 ft | 441 kts | 7° |
| 2026-05-06 19:17 | 45.57983 | -2.36120 | 36006 ft | 440 kts | 7° |
| 2026-05-06 19:18 | 45.64031 | -2.34706 | 36004 ft | 440 kts | 7° |
| 2026-05-06 19:18 | 45.70037 | -2.33298 | 36005 ft | 440 kts | 7° |
| 2026-05-06 19:19 | 45.76081 | -2.31875 | 36009 ft | 440 kts | 7° |
| 2026-05-06 19:19 | 48.67295 | -1.74494 | 36087 ft | 440 kts | 0° |
| 2026-05-06 19:19 | 48.70361 | -1.74429 | 35011 ft | 442 kts | 360° |
| 2026-05-06 19:20 | 48.73432 | -1.74454 | 36020 ft | 442 kts | 358° |
| 2026-05-06 19:20 | 48.79573 | -1.74703 | 36002 ft | 441 kts | 356° |
| 2026-05-06 19:21 | 48.85709 | -1.75002 | 36002 ft | 441 kts | 357° |
| 2026-05-06 19:21 | 48.91853 | -1.75230 | 36012 ft | 441 kts | 358° |
| 2026-05-06 19:22 | 48.97994 | -1.75104 | 36001 ft | 442 kts | 0° |
| 2026-05-06 19:22 | 49.04144 | -1.74754 | 36005 ft | 442 kts | 1° |
| 2026-05-06 19:23 | 49.10303 | -1.74442 | 35976 ft | 446 kts | 2° |
| 2026-05-06 19:23 | 49.16547 | -1.74204 | 35981 ft | 450 kts | 2° |
| 2026-05-06 19:24 | 49.22784 | -1.73983 | 35985 ft | 452 kts | 2° |
| 2026-05-06 19:24 | 49.29122 | -1.73741 | 35994 ft | 453 kts | 2° |
| 2026-05-06 19:25 | 49.35383 | -1.73491 | 36004 ft | 453 kts | 2° |
| 2026-05-06 19:25 | 49.41691 | -1.73246 | 36003 ft | 453 kts | 2° |
| 2026-05-06 19:26 | 49.48003 | -1.73006 | 36015 ft | 454 kts | 2° |
| 2026-05-06 19:26 | 49.54311 | -1.72767 | 36017 ft | 453 kts | 2° |
| 2026-05-06 19:27 | 49.60574 | -1.71882 | 36020 ft | 452 kts | 14° |
| 2026-05-06 19:27 | 49.66523 | -1.68810 | 36012 ft | 451 kts | 20° |
| 2026-05-06 19:28 | 49.72439 | -1.65542 | 35642 ft | 453 kts | 20° |
| 2026-05-06 19:28 | 49.75427 | -1.63894 | 34730 ft | 459 kts | 20° |
| 2026-05-06 19:28 | 49.78449 | -1.62225 | 33876 ft | 463 kts | 20° |
| 2026-05-06 19:28 | 49.81491 | -1.60541 | 32947 ft | 465 kts | 20° |
| 2026-05-06 19:29 | 49.84512 | -1.58864 | 32468 ft | 457 kts | 20° |
| 2026-05-06 19:29 | 49.87493 | -1.57201 | 31879 ft | 453 kts | 20° |
| 2026-05-06 19:29 | 49.90443 | -1.55550 | 31289 ft | 449 kts | 20° |
| 2026-05-06 19:29 | 49.93364 | -1.53912 | 30724 ft | 444 kts | 20° |
| 2026-05-06 19:30 | 49.96261 | -1.52293 | 30158 ft | 440 kts | 20° |
| 2026-05-06 19:30 | 49.99100 | -1.50709 | 29552 ft | 436 kts | 20° |
| 2026-05-06 19:30 | 50.01945 | -1.49163 | 29019 ft | 431 kts | 19° |
| 2026-05-06 19:30 | 50.04779 | -1.47736 | 28483 ft | 426 kts | 18° |
| 2026-05-06 19:31 | 50.07595 | -1.46386 | 27955 ft | 421 kts | 17° |
| 2026-05-06 19:31 | 50.10382 | -1.45077 | 27432 ft | 416 kts | 17° |
| 2026-05-06 19:31 | 50.15857 | -1.42478 | 26423 ft | 407 kts | 17° |
| 2026-05-06 19:32 | 50.18542 | -1.41165 | 25942 ft | 402 kts | 17° |
| 2026-05-06 19:32 | 50.21192 | -1.39859 | 25464 ft | 397 kts | 17° |
| 2026-05-06 19:32 | 50.23813 | -1.38569 | 25009 ft | 393 kts | 17° |
| 2026-05-06 19:32 | 50.26406 | -1.37289 | 24565 ft | 388 kts | 17° |
| 2026-05-06 19:33 | 50.28939 | -1.35909 | 24096 ft | 382 kts | 25° |
| 2026-05-06 19:33 | 50.31171 | -1.33716 | 23655 ft | 378 kts | 35° |
| 2026-05-06 19:33 | 50.33288 | -1.31293 | 23130 ft | 376 kts | 36° |
| 2026-05-06 19:33 | 50.35392 | -1.28875 | 22574 ft | 372 kts | 36° |
| 2026-05-06 19:34 | 50.37471 | -1.26477 | 22051 ft | 369 kts | 36° |
| 2026-05-06 19:34 | 50.39544 | -1.24080 | 21553 ft | 369 kts | 36° |
| 2026-05-06 19:34 | 50.41567 | -1.21738 | 21113 ft | 365 kts | 36° |
| 2026-05-06 19:34 | 50.43602 | -1.19381 | 20670 ft | 362 kts | 36° |
| 2026-05-06 19:35 | 50.45623 | -1.17033 | 20218 ft | 360 kts | 36° |
| 2026-05-06 19:35 | 50.47630 | -1.14697 | 19769 ft | 358 kts | 36° |
| 2026-05-06 19:35 | 50.49626 | -1.12375 | 19323 ft | 356 kts | 36° |
| 2026-05-06 19:35 | 50.51611 | -1.10067 | 18879 ft | 354 kts | 36° |
| 2026-05-06 19:36 | 50.53591 | -1.07767 | 18428 ft | 353 kts | 36° |
| 2026-05-06 19:36 | 50.55565 | -1.05474 | 17949 ft | 352 kts | 36° |
| 2026-05-06 19:36 | 50.57527 | -1.03189 | 17505 ft | 349 kts | 37° |
| 2026-05-06 19:36 | 50.59212 | -1.00491 | 17145 ft | 345 kts | 55° |
| 2026-05-06 19:37 | 50.60382 | -0.97208 | 16885 ft | 343 kts | 62° |
| 2026-05-06 19:37 | 50.61482 | -0.93880 | 16625 ft | 342 kts | 62° |
| 2026-05-06 19:37 | 50.62573 | -0.90561 | 16377 ft | 340 kts | 62° |
| 2026-05-06 19:37 | 50.63650 | -0.87259 | 16114 ft | 338 kts | 62° |
| 2026-05-06 19:38 | 50.64721 | -0.83969 | 15851 ft | 337 kts | 62° |
| 2026-05-06 19:38 | 50.65792 | -0.80681 | 15602 ft | 337 kts | 62° |
| 2026-05-06 19:38 | 50.66860 | -0.77395 | 15334 ft | 336 kts | 62° |
| 2026-05-06 19:38 | 50.67912 | -0.74158 | 14854 ft | 337 kts | 62° |
| 2026-05-06 19:39 | 50.68978 | -0.70869 | 14372 ft | 337 kts | 62° |
| 2026-05-06 19:39 | 50.70047 | -0.67568 | 13893 ft | 338 kts | 62° |
| 2026-05-06 19:39 | 50.71120 | -0.64265 | 13357 ft | 338 kts | 62° |
| 2026-05-06 19:39 | 50.72193 | -0.60955 | 12842 ft | 338 kts | 62° |
| 2026-05-06 19:40 | 50.73263 | -0.57652 | 12310 ft | 338 kts | 62° |
| 2026-05-06 19:40 | 50.74329 | -0.54354 | 11801 ft | 337 kts | 62° |
| 2026-05-06 19:40 | 50.75393 | -0.51058 | 11297 ft | 336 kts | 62° |
| 2026-05-06 19:40 | 50.76453 | -0.47769 | 10801 ft | 335 kts | 62° |
| 2026-05-06 19:41 | 50.77510 | -0.44488 | 10316 ft | 334 kts | 62° |
| 2026-05-06 19:41 | 50.78560 | -0.41216 | 9819 ft | 333 kts | 62° |
| 2026-05-06 19:41 | 50.79605 | -0.37953 | 9297 ft | 332 kts | 62° |
| 2026-05-06 19:41 | 50.80636 | -0.34731 | 8955 ft | 325 kts | 62° |
| 2026-05-06 19:42 | 50.81635 | -0.31603 | 8779 ft | 313 kts | 62° |
| 2026-05-06 19:42 | 50.82596 | -0.28593 | 8659 ft | 300 kts | 61° |
| 2026-05-06 19:42 | 50.83642 | -0.25817 | 8525 ft | 287 kts | 50° |
| 2026-05-06 19:42 | 50.85066 | -0.23739 | 8391 ft | 272 kts | 28° |
| 2026-05-06 19:43 | 50.86820 | -0.22929 | 8259 ft | 259 kts | 360° |
| 2026-05-06 19:43 | 50.88501 | -0.23540 | 8143 ft | 248 kts | 331° |
| 2026-05-06 19:43 | 50.89835 | -0.25198 | 8030 ft | 241 kts | 318° |
| 2026-05-06 19:43 | 50.91032 | -0.27047 | 7924 ft | 239 kts | 316° |
| 2026-05-06 19:44 | 50.92199 | -0.28902 | 7612 ft | 237 kts | 316° |
| 2026-05-06 19:44 | 50.93358 | -0.30758 | 7286 ft | 236 kts | 316° |
| 2026-05-06 19:44 | 50.94508 | -0.32611 | 6963 ft | 235 kts | 316° |
| 2026-05-06 19:44 | 50.95649 | -0.34457 | 6645 ft | 233 kts | 316° |
| 2026-05-06 19:45 | 50.96780 | -0.36295 | 6319 ft | 232 kts | 316° |
| 2026-05-06 19:45 | 50.97790 | -0.38291 | 5996 ft | 232 kts | 307° |
| 2026-05-06 19:45 | 50.98678 | -0.40363 | 5857 ft | 222 kts | 306° |
| 2026-05-06 19:45 | 50.99517 | -0.42358 | 5652 ft | 216 kts | 306° |
| 2026-05-06 19:46 | 51.00370 | -0.44389 | 5128 ft | 226 kts | 306° |
| 2026-05-06 19:46 | 51.01259 | -0.46506 | 4619 ft | 235 kts | 306° |
| 2026-05-06 19:46 | 51.02184 | -0.48701 | 4150 ft | 241 kts | 306° |
| 2026-05-06 19:46 | 51.03296 | -0.50576 | 3870 ft | 235 kts | 329° |
| 2026-05-06 19:47 | 51.04722 | -0.51802 | 3539 ft | 233 kts | 338° |
| 2026-05-06 19:47 | 51.06293 | -0.52190 | 3224 ft | 230 kts | 9° |
| 2026-05-06 19:47 | 51.07727 | -0.51185 | 3016 ft | 223 kts | 36° |
| 2026-05-06 19:47 | 51.08876 | -0.49678 | 2993 ft | 203 kts | 40° |
| 2026-05-06 19:48 | 51.09895 | -0.48247 | 3004 ft | 189 kts | 41° |
| 2026-05-06 19:48 | 51.10778 | -0.46750 | 3000 ft | 185 kts | 58° |
| 2026-05-06 19:48 | 51.11216 | -0.44842 | 3010 ft | 185 kts | 76° |
| 2026-05-06 19:48 | 51.11495 | -0.42850 | 2989 ft | 185 kts | 75° |
| 2026-05-06 19:49 | 51.11774 | -0.40859 | 2847 ft | 183 kts | 76° |
| 2026-05-06 19:49 | 51.12050 | -0.38888 | 2605 ft | 179 kts | 76° |
| 2026-05-06 19:49 | 51.12313 | -0.37007 | 2360 ft | 169 kts | 76° |
| 2026-05-06 19:49 | 51.12563 | -0.35219 | 2141 ft | 163 kts | 77° |
| 2026-05-06 19:50 | 51.12807 | -0.33475 | 1925 ft | 160 kts | 77° |
| 2026-05-06 19:50 | 51.13048 | -0.31749 | 1710 ft | 159 kts | 77° |
| 2026-05-06 19:50 | 51.13284 | -0.30058 | 1493 ft | 158 kts | 78° |
| 2026-05-06 19:50 | 51.13525 | -0.28324 | 1343 ft | 166 kts | 77° |
| 2026-05-06 19:51 | 51.13777 | -0.26523 | 1131 ft | 162 kts | 77° |
| 2026-05-06 19:51 | 51.14014 | -0.24834 | 816 ft | 149 kts | 77° |
| 2026-05-06 19:51 | 51.14235 | -0.23257 | 544 ft | 146 kts | 77° |
| 2026-05-06 19:51 | 51.14456 | -0.21687 | 379 ft | 143 kts | 77° |
| 2026-05-06 19:52 | 51.14650 | -0.20202 | 216 ft | 129 kts | 77° |
| 2026-05-06 19:52 | 51.14814 | -0.19044 | 213 ft | 83 kts | 77° |
| 2026-05-06 19:52 | 51.14903 | -0.18401 | 216 ft | 42 kts | 77° |
| 2026-05-06 19:52 | 51.14959 | -0.18050 | 211 ft | 26 kts | 67° |
| 2026-05-06 19:53 | 51.15035 | -0.17845 | 212 ft | 14 kts | 53° |
| 2026-05-06 19:53 | 51.15091 | -0.17761 | 209 ft | 11 kts | 14° |
| 2026-05-06 19:53 | 51.15163 | -0.17771 | 213 ft | 0 kts | 353° |
| 2026-05-06 19:55 | 51.15184 | -0.17775 | 215 ft | 8 kts | 352° |
| 2026-05-06 19:55 | 51.15238 | -0.17811 | 213 ft | 10 kts | 309° |
| 2026-05-06 19:55 | 51.15235 | -0.17932 | 207 ft | 11 kts | 257° |
| 2026-05-06 19:56 | 51.15224 | -0.18067 | 205 ft | 13 kts | 287° |
| 2026-05-06 19:56 | 51.15300 | -0.18120 | 208 ft | 11 kts | 348° |
| 2026-05-06 19:56 | 51.15372 | -0.18144 | 208 ft | 10 kts | 348° |
| 2026-05-06 19:56 | 51.15433 | -0.18164 | 213 ft | 8 kts | 347° |
| 2026-05-06 19:57 | 51.15482 | -0.18190 | 211 ft | 7 kts | 342° |
| 2026-05-06 19:57 | 51.15559 | -0.18218 | 206 ft | 13 kts | 348° |
| 2026-05-06 19:57 | 51.15639 | -0.18236 | 209 ft | 11 kts | 7° |
| 2026-05-06 19:57 | 51.15674 | -0.18150 | 204 ft | 10 kts | 76° |
| 2026-05-06 19:58 | 51.15704 | -0.18049 | 211 ft | 11 kts | 31° |
| 2026-05-06 19:58 | 51.15772 | -0.18059 | 204 ft | 9 kts | 348° |
| 2026-05-06 19:58 | 51.15828 | -0.18078 | 210 ft | 8 kts | 347° |
| 2026-05-06 19:58 | 51.15880 | -0.18097 | 210 ft | 10 kts | 347° |
| 2026-05-06 19:59 | 51.15960 | -0.18124 | 210 ft | 11 kts | 348° |
| 2026-05-06 19:59 | 51.16010 | -0.18115 | 213 ft | 6 kts | 52° |
| 2026-05-06 19:59 | 51.16019 | -0.18062 | 204 ft | 4 kts | 76° |
| 2026-05-06 19:59 | 51.16024 | -0.18024 | 213 ft | 3 kts | 78° |
| 2026-05-06 20:00 | 51.16026 | -0.18010 | 204 ft | 0 kts | 77° |